Time;durP1;ratioP1;P1;durP2;ratioP2;P2;SDS_P1;SDS_P2;PMS_P1;PMS_P2;Temp;Humidity;BMP_temperature;BMP_pressure;BME280_temperature;BME280_humidity;BME280_pressure;Samples;Min_cycle;Max_cycle;Signal;HPM_P1;HPM_P2
2024/03/03 00:02:21;;;;;;;;;;;;;;;;;;5094512;28;20367;-72
2024/03/03 00:04:46;;;;;;;;;;;;;;;;;;5093607;28;20371;-71
2024/03/03 00:07:12;;;;;;;;;;;;;;;;;;5093982;28;20364;-72
2024/03/03 00:09:38;;;;;;;;;;;;;;;;;;5075824;28;20342;-72
2024/03/03 00:12:04;;;;;;;;;;;;;;;;;;5093625;28;19931;-71
2024/03/03 00:14:30;;;;;;;;;;;;;;;;;;5093664;28;19912;-71
2024/03/03 00:16:57;;;;;;;;;;;;;;;;;;5093846;28;19967;-73
2024/03/03 00:19:22;;;;;;;;;;;;;;;;;;5093466;28;19915;-71
2024/03/03 00:21:48;;;;;;;;;;;;;;;;;;5093772;28;19908;-71
2024/03/03 00:24:14;;;;;;;;;;;;;;;;;;5093356;28;20002;-71
2024/03/03 00:26:40;;;;;;;;;;;;;;;;;;5093757;28;19908;-73
2024/03/03 00:29:06;;;;;;;;;;;;;;;;;;5093752;28;19908;-72
2024/03/03 00:31:32;;;;;;;;;;;;;;;;;;5093378;28;20002;-72
2024/03/03 00:33:58;;;;;;;;;;;;;;;;;;5075607;28;20356;-72
2024/03/03 00:36:24;;;;;;;;;;;;;;;;;;5093736;28;19920;-72
2024/03/03 00:38:50;;;;;;;;;;;;;;;;;;5097338;28;19908;-71
2024/03/03 00:41:16;;;;;;;;;;;;;;;;;;5097885;28;19912;-71
2024/03/03 00:43:42;;;;;;;;;;;;;;;;;;5097879;28;19914;-71
2024/03/03 00:46:08;;;;;;;;;;;;;;;;;;5097281;28;19912;-72
2024/03/03 00:48:34;;;;;;;;;;;;;;;;;;5097562;28;20390;-72
2024/03/03 00:51:00;;;;;;;;;;;;;;;;;;5097594;28;19931;-71
2024/03/03 00:53:26;;;;;;;;;;;;;;;;;;5097165;28;20346;-72
2024/03/03 00:55:52;;;;;;;;;;;;;;;;;;5097507;28;19923;-72
2024/03/03 00:58:20;;;;;;;;;;;;;;;;;;5097498;28;20431;-72
2024/03/03 01:00:46;;;;;;;;;;;;;;;;;;5097065;28;19912;-72
2024/03/03 01:03:12;;;;;;;;;;;;;;;;;;5097535;28;19915;-72
2024/03/03 01:05:38;;;;;;;;;;;;;;;;;;5097318;28;19943;-70
2024/03/03 01:08:03;;;;;;;;;;;;;;;;;;5096954;28;19908;-71
2024/03/03 01:10:29;;;;;;;;;;;;;;;;;;5097200;28;19962;-71
2024/03/03 01:12:55;;;;;;;;;;;;;;;;;;5097128;28;19912;-71
2024/03/03 01:15:21;;;;;;;;;;;;;;;;;;5096562;28;19962;-71
2024/03/03 01:17:47;;;;;;;;;;;;;;;;;;5097029;28;19908;-71
2024/03/03 01:20:13;;;;;;;;;;;;;;;;;;5078889;28;19908;-72
2024/03/03 01:22:39;;;;;;;;;;;;;;;;;;5096627;28;19915;-71
2024/03/03 01:25:06;;;;;;;;;;;;;;;;;;5096929;28;19958;-72
2024/03/03 01:27:33;;;;;;;;;;;;;;;;;;5096633;28;19918;-72
2024/03/03 01:29:59;;;;;;;;;;;;;;;;;;5096872;28;20356;-72
2024/03/03 01:32:25;;;;;;;;;;;;;;;;;;5096999;28;19953;-72
2024/03/03 01:34:51;;;;;;;;;;;;;;;;;;5096285;28;19943;-72
2024/03/03 01:37:20;;;;;;;;;;;;;;;;;;5096733;28;19981;-72
2024/03/03 01:39:45;;;;;;;;;;;;;;;;;;5096646;28;19999;-72
2024/03/03 01:42:11;;;;;;;;;;;;;;;;;;5096239;28;20004;-71
2024/03/03 01:44:37;;;;;;;;;;;;;;;;;;5096508;28;19908;-72
2024/03/03 01:47:03;;;;;;;;;;;;;;;;;;5096500;28;19914;-71
2024/03/03 01:49:29;;;;;;;;;;;;;;;;;;5095623;28;19908;-72
2024/03/03 01:51:55;;;;;;;;;;;;;;;;;;5096587;28;19908;-71
2024/03/03 01:54:21;;;;;;;;;;;;;;;;;;5096341;28;19999;-71
2024/03/03 01:56:47;;;;;;;;;;;;;;;;;;5077807;28;20299;-72
2024/03/03 01:59:13;;;;;;;;;;;;;;;;;;5078104;28;19931;-72
2024/03/03 02:01:39;;;;;;;;;;;;;;;;;;5096544;28;19918;-72
2024/03/03 02:04:05;;;;;;;;;;;;;;;;;;5096003;28;19912;-71
2024/03/03 02:06:31;;;;;;;;;;;;;;;;;;5096448;28;19908;-72
2024/03/03 02:08:57;;;;;;;;;;;;;;;;;;5096042;28;20368;-71
2024/03/03 02:11:23;;;;;;;;;;;;;;;;;;5095987;28;19908;-71
2024/03/03 02:13:49;;;;;;;;;;;;;;;;;;5096031;28;19908;-72
2024/03/03 02:16:15;;;;;;;;;;;;;;;;;;5077591;28;20299;-72
2024/03/03 02:18:41;;;;;;;;;;;;;;;;;;5095535;28;19908;-72
2024/03/03 02:21:07;;;;;;;;;;;;;;;;;;5077757;28;19908;-72
2024/03/03 02:23:32;;;;;;;;;;;;;;;;;;5096034;28;19973;-72
2024/03/03 02:25:58;;;;;;;;;;;;;;;;;;5095456;28;19912;-72
2024/03/03 02:28:25;;;;;;;;;;;;;;;;;;5095770;28;20003;-72
2024/03/03 02:30:51;;;;;;;;;;;;;;;;;;5095381;28;19934;-72
2024/03/03 02:33:17;;;;;;;;;;;;;;;;;;5095791;28;20330;-73
2024/03/03 02:35:43;;;;;;;;;;;;;;;;;;5095594;28;20269;-73
2024/03/03 02:38:09;;;;;;;;;;;;;;;;;;5095302;28;19908;-72
2024/03/03 02:40:34;;;;;;;;;;;;;;;;;;5077417;28;20012;-72
2024/03/03 02:43:00;;;;;;;;;;;;;;;;;;5095470;28;19908;-72
2024/03/03 02:45:26;;;;;;;;;;;;;;;;;;5095039;28;19908;-73
2024/03/03 02:47:53;;;;;;;;;;;;;;;;;;5095349;28;19958;-73
2024/03/03 02:50:20;;;;;;;;;;;;;;;;;;5095676;28;19908;-72
2024/03/03 02:52:46;;;;;;;;;;;;;;;;;;5095170;28;19912;-73
2024/03/03 02:55:12;;;;;;;;;;;;;;;;;;5095080;28;19912;-72
2024/03/03 02:57:38;;;;;;;;;;;;;;;;;;5095066;28;19912;-73
2024/03/03 03:00:05;;;;;;;;;;;;;;;;;;5093971;28;19914;-72
2024/03/03 03:02:30;;;;;;;;;;;;;;;;;;5095151;28;19931;-73
2024/03/03 03:04:56;;;;;;;;;;;;;;;;;;5094988;28;20411;-73
2024/03/03 03:07:22;;;;;;;;;;;;;;;;;;5094719;28;20364;-73
2024/03/03 03:09:48;;;;;;;;;;;;;;;;;;5094785;28;20261;-73
2024/03/03 03:12:14;;;;;;;;;;;;;;;;;;5076715;28;19978;-73
2024/03/03 03:14:40;;;;;;;;;;;;;;;;;;5094246;28;19908;-72
2024/03/03 03:17:06;;;;;;;;;;;;;;;;;;5094817;28;19973;-73
2024/03/03 03:19:32;;;;;;;;;;;;;;;;;;5094780;28;19909;-73
2024/03/03 03:21:58;;;;;;;;;;;;;;;;;;5076197;28;20060;-72
2024/03/03 03:24:26;;;;;;;;;;;;;;;;;;5094697;28;20301;-73
2024/03/03 03:26:52;;;;;;;;;;;;;;;;;;5094943;28;19914;-73
2024/03/03 03:29:18;;;;;;;;;;;;;;;;;;5094247;28;19908;-72
2024/03/03 03:31:44;;;;;;;;;;;;;;;;;;5094670;28;19954;-72
2024/03/03 03:34:10;;;;;;;;;;;;;;;;;;5094119;28;19908;-73
2024/03/03 03:36:36;;;;;;;;;;;;;;;;;;5076315;28;19920;-71
2024/03/03 03:39:10;;;;;;;;;;;;;;;;;;5094417;28;19912;-72
2024/03/03 03:41:36;;;;;;;;;;;;;;;;;;5094481;28;20071;-72
2024/03/03 03:44:01;;;;;;;;;;;;;;;;;;5076154;28;20399;-72
2024/03/03 03:46:27;;;;;;;;;;;;;;;;;;5094257;28;20330;-72
2024/03/03 03:48:53;;;;;;;;;;;;;;;;;;5093995;28;19915;-72
2024/03/03 03:51:19;;;;;;;;;;;;;;;;;;5094159;28;19961;-73
2024/03/03 03:53:45;;;;;;;;;;;;;;;;;;5094474;28;19916;-72
2024/03/03 03:56:11;;;;;;;;;;;;;;;;;;5093594;28;19963;-73
2024/03/03 03:58:37;;;;;;;;;;;;;;;;;;5094154;28;19908;-72
2024/03/03 04:01:03;;;;;;;;;;;;;;;;;;5094081;28;19908;-72
2024/03/03 04:03:29;;;;;;;;;;;;;;;;;;5093636;28;20379;-73
2024/03/03 04:05:55;;;;;;;;;;;;;;;;;;5093961;28;19916;-72
2024/03/03 04:08:21;;;;;;;;;;;;;;;;;;5075929;28;19914;-73
2024/03/03 04:10:47;;;;;;;;;;;;;;;;;;5075272;28;19934;-72
2024/03/03 04:13:13;;;;;;;;;;;;;;;;;;5093872;28;20275;-73
2024/03/03 04:15:39;;;;;;;;;;;;;;;;;;5093568;28;20034;-73
2024/03/03 04:18:05;;;;;;;;;;;;;;;;;;5093565;28;19915;-73
2024/03/03 04:20:31;;;;;;;;;;;;;;;;;;5093846;28;19986;-73
2024/03/03 04:22:56;;;;;;;;;;;;;;;;;;5093859;28;19908;-72
2024/03/03 04:25:22;;;;;;;;;;;;;;;;;;5075332;28;20416;-72
2024/03/03 04:27:48;;;;;;;;;;;;;;;;;;5093781;28;20364;-72
2024/03/03 04:30:14;;;;;;;;;;;;;;;;;;5093835;28;20431;-72
2024/03/03 04:32:40;;;;;;;;;;;;;;;;;;5093490;28;19960;-72
2024/03/03 04:35:07;;;;;;;;;;;;;;;;;;5093735;28;19943;-72
2024/03/03 04:37:33;;;;;;;;;;;;;;;;;;5075303;28;19912;-73
2024/03/03 04:39:59;;;;;;;;;;;;;;;;;;5093705;28;19931;-73
2024/03/03 04:42:25;;;;;;;;;;;;;;;;;;5093700;28;19912;-73
2024/03/03 04:44:51;;;;;;;;;;;;;;;;;;5075184;28;19915;-73
2024/03/03 04:47:17;;;;;;;;;;;;;;;;;;5075473;28;19995;-73
2024/03/03 04:49:43;;;;;;;;;;;;;;;;;;5093650;28;20004;-72
2024/03/03 04:52:09;;;;;;;;;;;;;;;;;;5075156;28;19908;-72
2024/03/03 04:54:35;;;;;;;;;;;;;;;;;;5093765;28;19912;-72
2024/03/03 04:57:01;;;;;;;;;;;;;;;;;;5075352;28;19916;-72
2024/03/03 04:59:27;;;;;;;;;;;;;;;;;;5093379;28;19908;-72
2024/03/03 05:01:53;;;;;;;;;;;;;;;;;;5093578;28;19915;-72
2024/03/03 05:04:19;;;;;;;;;;;;;;;;;;5093617;28;20098;-72
2024/03/03 05:06:45;;;;;;;;;;;;;;;;;;5093194;28;19931;-72
2024/03/03 05:09:11;;;;;;;;;;;;;;;;;;5093444;28;19908;-73
2024/03/03 05:11:37;;;;;;;;;;;;;;;;;;5093564;28;19961;-73
2024/03/03 05:14:03;;;;;;;;;;;;;;;;;;5093028;28;20009;-71
2024/03/03 05:16:29;;;;;;;;;;;;;;;;;;5093168;28;19920;-72
2024/03/03 05:18:55;;;;;;;;;;;;;;;;;;5093529;28;19995;-72
2024/03/03 05:21:21;;;;;;;;;;;;;;;;;;5093065;28;20360;-72
2024/03/03 05:23:47;;;;;;;;;;;;;;;;;;5096140;28;20377;-72
2024/03/03 05:26:13;;;;;;;;;;;;;;;;;;5097014;28;20310;-72
2024/03/03 05:28:39;;;;;;;;;;;;;;;;;;5096512;28;20253;-72
2024/03/03 05:31:05;;;;;;;;;;;;;;;;;;5097070;28;19915;-72
2024/03/03 05:33:31;;;;;;;;;;;;;;;;;;5097309;28;19955;-72
2024/03/03 05:35:57;;;;;;;;;;;;;;;;;;5096391;28;19912;-72
2024/03/03 05:38:23;;;;;;;;;;;;;;;;;;5096692;28;19908;-72
2024/03/03 05:40:49;;;;;;;;;;;;;;;;;;5096307;28;19961;-72
2024/03/03 05:43:15;;;;;;;;;;;;;;;;;;5096956;28;19912;-72
2024/03/03 05:45:41;;;;;;;;;;;;;;;;;;5096679;28;19909;-72
2024/03/03 05:48:07;;;;;;;;;;;;;;;;;;5096199;28;19952;-72
2024/03/03 05:50:33;;;;;;;;;;;;;;;;;;5097146;28;19916;-72
2024/03/03 05:52:59;;;;;;;;;;;;;;;;;;5096592;28;19915;-72
2024/03/03 05:55:25;;;;;;;;;;;;;;;;;;5096154;28;19964;-72
2024/03/03 05:57:51;;;;;;;;;;;;;;;;;;5096361;28;19915;-72
2024/03/03 06:00:17;;;;;;;;;;;;;;;;;;5096274;28;19908;-72
2024/03/03 06:02:43;;;;;;;;;;;;;;;;;;5077883;28;19908;-72
2024/03/03 06:05:09;;;;;;;;;;;;;;;;;;5078130;28;20397;-72
2024/03/03 06:07:35;;;;;;;;;;;;;;;;;;5096451;28;20365;-72
2024/03/03 06:10:01;;;;;;;;;;;;;;;;;;5095878;28;20002;-72
2024/03/03 06:12:27;;;;;;;;;;;;;;;;;;5096310;28;19948;-71
2024/03/03 06:14:54;;;;;;;;;;;;;;;;;;5095757;28;19920;-71
2024/03/03 06:17:20;;;;;;;;;;;;;;;;;;5095630;28;19920;-72
2024/03/03 06:19:46;;;;;;;;;;;;;;;;;;5095833;28;19912;-72
2024/03/03 06:22:12;;;;;;;;;;;;;;;;;;5077780;28;19908;-72
2024/03/03 06:24:38;;;;;;;;;;;;;;;;;;5077299;28;19915;-72
2024/03/03 06:27:04;;;;;;;;;;;;;;;;;;5077620;28;19908;-72
2024/03/03 06:29:30;;;;;;;;;;;;;;;;;;5095700;28;19909;-72
2024/03/03 06:31:56;;;;;;;;;;;;;;;;;;5095209;28;19912;-72
2024/03/03 06:34:21;;;;;;;;;;;;;;;;;;5095567;28;20322;-72
2024/03/03 06:36:47;;;;;;;;;;;;;;;;;;5095678;28;20272;-72
2024/03/03 06:39:14;;;;;;;;;;;;;;;;;;5095169;28;20341;-72
2024/03/03 06:41:40;;;;;;;;;;;;;;;;;;5095527;28;19996;-72
2024/03/03 06:44:06;;;;;;;;;;;;;;;;;;5095098;28;19955;-71
2024/03/03 06:46:32;;;;;;;;;;;;;;;;;;5077229;28;19908;-71
2024/03/03 06:48:58;;;;;;;;;;;;;;;;;;5095753;28;20395;-71
2024/03/03 06:51:24;;;;;;;;;;;;;;;;;;5094889;28;19915;-71
2024/03/03 06:53:50;;;;;;;;;;;;;;;;;;5095299;28;19908;-71
2024/03/03 06:56:16;;;;;;;;;;;;;;;;;;5095259;28;19955;-72
2024/03/03 06:58:42;;;;;;;;;;;;;;;;;;5094891;28;19912;-72
2024/03/03 07:01:08;;;;;;;;;;;;;;;;;;5095177;28;19908;-72
2024/03/03 07:06:18;;;;;;;;;;;;;;;;;;5094728;28;19915;-72
2024/03/03 07:08:44;;;;;;;;;;;;;;;;;;5095010;28;19909;-72
2024/03/03 07:11:10;;;;;;;;;;;;;;;;;;5094888;28;20253;-71
2024/03/03 07:13:36;;;;;;;;;;;;;;;;;;5094477;28;19908;-72
2024/03/03 07:16:02;;;;;;;;;;;;;;;;;;5094552;28;19920;-72
2024/03/03 07:18:28;;;;;;;;;;;;;;;;;;5076566;28;19914;-71
2024/03/03 07:20:54;;;;;;;;;;;;;;;;;;5094488;28;19947;-72
2024/03/03 07:23:20;;;;;;;;;;;;;;;;;;5076573;28;19909;-72
2024/03/03 07:25:46;;;;;;;;;;;;;;;;;;5076597;28;19942;-73
2024/03/03 07:28:12;;;;;;;;;;;;;;;;;;5075941;28;19915;-72
2024/03/03 07:30:38;;;;;;;;;;;;;;;;;;5094907;28;19962;-73
2024/03/03 07:33:04;;;;;;;;;;;;;;;;;;5076515;28;19957;-73
2024/03/03 07:35:30;;;;;;;;;;;;;;;;;;5094022;28;19916;-72
2024/03/03 07:37:56;;;;;;;;;;;;;;;;;;5094614;28;20349;-73
2024/03/03 07:40:22;;;;;;;;;;;;;;;;;;5094348;28;20261;-72
2024/03/03 07:42:48;;;;;;;;;;;;;;;;;;5094409;28;19908;-72
2024/03/03 07:45:14;;;;;;;;;;;;;;;;;;5075948;28;20003;-73
2024/03/03 07:47:40;;;;;;;;;;;;;;;;;;5093800;28;19908;-74
2024/03/03 07:50:06;;;;;;;;;;;;;;;;;;5094390;28;19919;-72
2024/03/03 07:52:32;;;;;;;;;;;;;;;;;;5094133;28;20011;-72
2024/03/03 07:54:58;;;;;;;;;;;;;;;;;;5093898;28;19995;-73
2024/03/03 07:57:24;;;;;;;;;;;;;;;;;;5094073;28;19923;-74
2024/03/03 07:59:50;;;;;;;;;;;;;;;;;;5094094;28;19947;-73
2024/03/03 08:02:16;;;;;;;;;;;;;;;;;;5093818;28;20005;-73
2024/03/03 08:04:41;;;;;;;;;;;;;;;;;;5076067;28;19909;-72
2024/03/03 08:07:07;;;;;;;;;;;;;;;;;;5075852;28;19922;-72
2024/03/03 08:09:33;;;;;;;;;;;;;;;;;;5093632;28;19909;-72
2024/03/03 08:11:59;;;;;;;;;;;;;;;;;;5093999;28;19961;-72
2024/03/03 08:14:25;;;;;;;;;;;;;;;;;;5075751;28;19951;-72
2024/03/03 08:16:51;;;;;;;;;;;;;;;;;;5093356;28;20010;-72
2024/03/03 08:19:17;;;;;;;;;;;;;;;;;;5093842;28;20368;-72
2024/03/03 08:21:43;;;;;;;;;;;;;;;;;;5093818;28;19947;-72
2024/03/03 08:24:09;;;;;;;;;;;;;;;;;;5093514;28;19954;-72
2024/03/03 08:26:35;;;;;;;;;;;;;;;;;;5093714;28;20352;-72
2024/03/03 08:29:03;;;;;;;;;;;;;;;;;;5093699;28;19914;-73
2024/03/03 08:31:30;;;;;;;;;;;;;;;;;;5093417;28;19972;-72
2024/03/03 08:33:56;;;;;;;;;;;;;;;;;;5093706;28;20267;-72
2024/03/03 08:36:22;;;;;;;;;;;;;;;;;;5094258;28;19917;-72
2024/03/03 08:38:48;;;;;;;;;;;;;;;;;;5093638;28;19941;-72
2024/03/03 08:41:15;;;;;;;;;;;;;;;;;;5093748;28;19916;-70
2024/03/03 08:43:41;;;;;;;;;;;;;;;;;;5093295;28;19991;-71
2024/03/03 08:46:06;;;;;;;;;;;;;;;;;;5093767;28;19959;-72
2024/03/03 08:48:32;;;;;;;;;;;;;;;;;;5093715;28;19908;-72
2024/03/03 08:50:58;;;;;;;;;;;;;;;;;;5093324;28;19959;-72
2024/03/03 08:53:25;;;;;;;;;;;;;;;;;;5093663;28;19908;-71
2024/03/03 08:55:51;;;;;;;;;;;;;;;;;;5075267;28;20400;-72
2024/03/03 08:58:19;;;;;;;;;;;;;;;;;;5076427;28;19944;-72
2024/03/03 09:00:45;;;;;;;;;;;;;;;;;;5097545;28;20289;-72
2024/03/03 09:03:11;;;;;;;;;;;;;;;;;;5097887;28;19908;-72
2024/03/03 09:05:37;;;;;;;;;;;;;;;;;;5097065;28;20325;-72
2024/03/03 09:08:03;;;;;;;;;;;;;;;;;;5097307;28;19999;-72
2024/03/03 09:10:29;;;;;;;;;;;;;;;;;;5097389;28;19915;-72
2024/03/03 09:12:55;;;;;;;;;;;;;;;;;;5096896;28;19908;-72
2024/03/03 09:15:21;;;;;;;;;;;;;;;;;;5096967;28;19917;-71
2024/03/03 09:17:47;;;;;;;;;;;;;;;;;;5097192;28;19909;-72
2024/03/03 09:20:13;;;;;;;;;;;;;;;;;;5096805;28;19915;-73
2024/03/03 09:22:38;;;;;;;;;;;;;;;;;;5097054;28;20431;-74
2024/03/03 09:25:04;;;;;;;;;;;;;;;;;;5097202;28;19915;-72
2024/03/03 09:27:31;;;;;;;;;;;;;;;;;;5078420;28;19948;-73
2024/03/03 09:29:58;;;;;;;;;;;;;;;;;;5096908;28;20280;-73
2024/03/03 09:32:24;;;;;;;;;;;;;;;;;;5096853;28;19914;-73
2024/03/03 09:37:35;;;;;;;;;;;;;;;;;;5091875;27;19916;-72
2024/03/03 09:40:01;;;;;;;;;;;;;;;;;;5090925;28;20360;-71
2024/03/03 09:42:27;;;;;;;;;;;;;;;;;;5090027;28;19909;-72
2024/03/03 09:44:53;;;;;;;;;;;;;;;;;;5091256;28;19962;-72
2024/03/03 09:48:25;;;;;;;;;;;;;;;;;;5091243;27;20303;-74
2024/03/03 09:53:14;;;;;;;;;;;;;;;;;;5111798;27;19916;-73
2024/03/03 10:02:16;;;;;;;;;;;;;;;;;;5071104;28;20407;-72
2024/03/03 10:07:14;;;;;;;;;;;;;;;;;;5091973;27;19917;-72
2024/03/03 10:12:13;;;;;;;;;;;;;;;;;;5092185;27;19923;-73
2024/03/03 10:14:39;;;;;;;;;;;;;;;;;;5091276;28;19999;-73
2024/03/03 10:17:05;;;;;;;;;;;;;;;;;;5090885;28;19975;-73
2024/03/03 10:20:16;;;;;;;;;;;;;;;;;;5091603;27;19923;-73
2024/03/03 10:22:42;;;;;;;;;;;;;;;;;;5091018;28;20003;-73
2024/03/03 10:29:59;;;;;;;;;;;;;;;;;;5091001;27;19916;-73
2024/03/03 10:32:50;;;;;;;;;;;;;;;;;;5091466;27;19912;-74
2024/03/03 10:36:20;;;;;;;;;;;;;;;;;;4969088;28;19919;-72
2024/03/03 10:38:46;;;;;;;;;;;;;;;;;;4969072;28;20293;-73
2024/03/03 10:41:12;;;;;;;;;;;;;;;;;;4969118;28;19915;-73
2024/03/03 10:43:38;;;;;;;;;;;;;;;;;;4968666;28;19911;-73
2024/03/03 10:50:52;;;;;;;;;;;;;;;;;;5070851;28;19923;-72
2024/03/03 10:53:18;;;;;;;;;;;;;;;;;;5069757;28;19992;-73
2024/03/03 10:55:44;;;;;;;;;;;;;;;;;;5071337;28;19913;-72
2024/03/03 10:58:10;;;;;;;;;;;;;;;;;;5069312;28;19910;-72
2024/03/03 11:01:35;;;;;;;;;;;;;;;;;;5091913;27;20304;-73
2024/03/03 11:04:00;;;;;;;;;;;;;;;;;;5091598;28;20385;-72
2024/03/03 11:06:26;;;;;;;;;;;;;;;;;;5089660;28;19908;-73
2024/03/03 11:08:52;;;;;;;;;;;;;;;;;;5091384;28;19913;-72
2024/03/03 11:13:32;;;;;;;;;;;;;;;;;;5091511;27;19920;-72
2024/03/03 11:15:58;;;;;;;;;;;;;;;;;;5091356;28;19958;-72
2024/03/03 11:18:24;;;;;;;;;;;;;;;;;;5090963;28;19909;-73
2024/03/03 11:20:50;;;;;;;;;;;;;;;;;;5091184;28;19984;-72
2024/03/03 11:23:16;;;;;;;;;;;;;;;;;;5091208;28;20417;-72
2024/03/03 11:25:42;;;;;;;;;;;;;;;;;;5090936;28;19952;-73
2024/03/03 11:29:22;;;;;;;;;;;;;;;;;;5091252;27;19919;-72
2024/03/03 11:31:48;;;;;;;;;;;;;;;;;;5091277;28;19919;-73
2024/03/03 11:34:15;;;;;;;;;;;;;;;;;;5090929;28;19960;-73
2024/03/03 11:37:34;;;;;;;;;;;;;;;;;;5091612;27;19916;-72
2024/03/03 11:44:57;;;;;;;;;;;;;;;;;;5111890;27;19916;-72
2024/03/03 11:47:23;;;;;;;;;;;;;;;;;;5111330;28;19912;-72
2024/03/03 11:52:08;;;;;;;;;;;;;;;;;;5091947;27;19916;-73
2024/03/03 11:58:20;;;;;;;;;;;;;;;;;;5112437;27;20254;-72
2024/03/03 12:01:55;;;;;;;;;;;;;;;;;;5090979;27;19917;-72
2024/03/03 12:04:21;;;;;;;;;;;;;;;;;;5091210;28;19919;-71
2024/03/03 12:06:48;;;;;;;;;;;;;;;;;;5091626;28;19947;-73
2024/03/03 12:09:48;;;;;;;;;;;;;;;;;;5091767;28;20034;-72
2024/03/03 12:12:14;;;;;;;;;;;;;;;;;;5091317;28;19995;-72
2024/03/03 12:16:14;;;;;;;;;;;;;;;;;;5090899;27;19913;-72
2024/03/03 12:18:41;;;;;;;;;;;;;;;;;;5091646;28;19959;-73
2024/03/03 12:21:07;;;;;;;;;;;;;;;;;;5091225;28;19934;-72
2024/03/03 12:25:08;;;;;;;;;;;;;;;;;;5092126;28;19917;-72
2024/03/03 12:27:34;;;;;;;;;;;;;;;;;;5091372;28;20372;-72
2024/03/03 12:30:00;;;;;;;;;;;;;;;;;;5089631;28;19915;-72
2024/03/03 12:32:26;;;;;;;;;;;;;;;;;;5089894;28;19931;-73
2024/03/03 12:35:03;;;;;;;;;;;;;;;;;;5174191;27;19918;-73
2024/03/03 12:37:29;;;;;;;;;;;;;;;;;;5154878;27;19915;-73
2024/03/03 12:39:56;;;;;;;;;;;;;;;;;;5155331;27;20282;-73
2024/03/03 12:42:23;;;;;;;;;;;;;;;;;;5173431;27;19907;-73
2024/03/03 12:44:48;;;;;;;;;;;;;;;;;;5173129;27;20002;-73
2024/03/03 12:49:46;;;;;;;;;;;;;;;;;;5091130;28;19916;-73
2024/03/03 12:52:12;;;;;;;;;;;;;;;;;;5091311;28;19912;-72
2024/03/03 12:54:39;;;;;;;;;;;;;;;;;;5091275;28;19947;-72
2024/03/03 12:57:05;;;;;;;;;;;;;;;;;;5090903;28;19908;-72
2024/03/03 12:59:32;;;;;;;;;;;;;;;;;;5090156;28;20271;-73
2024/03/03 13:01:59;;;;;;;;;;;;;;;;;;5091055;28;19913;-73
2024/03/03 13:04:25;;;;;;;;;;;;;;;;;;5090836;28;19908;-72
2024/03/03 13:06:51;;;;;;;;;;;;;;;;;;5092035;28;19908;-73
2024/03/03 13:09:16;;;;;;;;;;;;;;;;;;5090846;28;19924;-73
2024/03/03 13:11:43;;;;;;;;;;;;;;;;;;5090601;28;19912;-74
2024/03/03 13:14:09;;;;;;;;;;;;;;;;;;5090848;28;19909;-74
2024/03/03 13:16:35;;;;;;;;;;;;;;;;;;5089520;28;20404;-73
2024/03/03 13:19:01;;;;;;;;;;;;;;;;;;5090473;28;19948;-73
2024/03/03 13:21:28;;;;;;;;;;;;;;;;;;5090784;28;19997;-73
2024/03/03 13:23:54;;;;;;;;;;;;;;;;;;5090736;28;19912;-73
2024/03/03 13:26:20;;;;;;;;;;;;;;;;;;5090686;28;20433;-73
2024/03/03 13:28:48;;;;;;;;;;;;;;;;;;5089236;28;20016;-73
2024/03/03 13:31:14;;;;;;;;;;;;;;;;;;5090624;28;19995;-74
2024/03/03 13:33:40;;;;;;;;;;;;;;;;;;5090093;28;19991;-74
2024/03/03 13:36:09;;;;;;;;;;;;;;;;;;5090524;28;19954;-74
2024/03/03 13:38:35;;;;;;;;;;;;;;;;;;5090590;28;19940;-73
2024/03/03 13:41:02;;;;;;;;;;;;;;;;;;5090119;28;19915;-73
2024/03/03 13:43:28;;;;;;;;;;;;;;;;;;5090770;28;19951;-73
2024/03/03 13:45:54;;;;;;;;;;;;;;;;;;5088947;28;19908;-73
2024/03/03 13:48:20;;;;;;;;;;;;;;;;;;5088647;28;20015;-73
2024/03/03 13:50:46;;;;;;;;;;;;;;;;;;5090144;28;19958;-73
2024/03/03 13:53:13;;;;;;;;;;;;;;;;;;5090098;28;20361;-73
2024/03/03 13:55:39;;;;;;;;;;;;;;;;;;5090046;28;20392;-73
2024/03/03 13:58:05;;;;;;;;;;;;;;;;;;5088704;28;19908;-73
2024/03/03 14:00:31;;;;;;;;;;;;;;;;;;5079023;28;19909;-73
2024/03/03 14:02:57;;;;;;;;;;;;;;;;;;5076457;28;20383;-73
2024/03/03 14:05:23;;;;;;;;;;;;;;;;;;5076438;28;20022;-73
2024/03/03 14:07:49;;;;;;;;;;;;;;;;;;5074844;28;19913;-73
2024/03/03 14:10:15;;;;;;;;;;;;;;;;;;5077041;28;20354;-73
2024/03/03 14:12:41;;;;;;;;;;;;;;;;;;5076327;28;20280;-72
2024/03/03 14:15:07;;;;;;;;;;;;;;;;;;5074575;28;19908;-72
2024/03/03 14:17:33;;;;;;;;;;;;;;;;;;5076267;28;19938;-73
2024/03/03 14:19:59;;;;;;;;;;;;;;;;;;5076249;28;20429;-72
2024/03/03 14:22:25;;;;;;;;;;;;;;;;;;5075865;28;19916;-73
2024/03/03 14:24:51;;;;;;;;;;;;;;;;;;5076110;28;20298;-73
2024/03/03 14:27:17;;;;;;;;;;;;;;;;;;5076079;28;19915;-72
2024/03/03 14:29:43;;;;;;;;;;;;;;;;;;5075680;28;19923;-72
2024/03/03 14:32:09;;;;;;;;;;;;;;;;;;5075960;28;19955;-74
2024/03/03 14:34:35;;;;;;;;;;;;;;;;;;5075865;28;20265;-73
2024/03/03 14:37:01;;;;;;;;;;;;;;;;;;5075517;28;20005;-75
2024/03/03 14:39:27;;;;;;;;;;;;;;;;;;5075917;28;19908;-73
2024/03/03 14:41:53;;;;;;;;;;;;;;;;;;5075789;28;19943;-73
2024/03/03 14:44:19;;;;;;;;;;;;;;;;;;5075367;28;19989;-73
2024/03/03 14:46:45;;;;;;;;;;;;;;;;;;5075693;28;19908;-73
2024/03/03 14:49:11;;;;;;;;;;;;;;;;;;5091728;28;19927;-73
2024/03/03 14:51:37;;;;;;;;;;;;;;;;;;5095577;28;19931;-73
2024/03/03 14:54:05;;;;;;;;;;;;;;;;;;5095589;28;19912;-72
2024/03/03 14:56:31;;;;;;;;;;;;;;;;;;5095237;28;19908;-73
2024/03/03 14:58:57;;;;;;;;;;;;;;;;;;5095729;28;19915;-73
2024/03/03 15:01:23;;;;;;;;;;;;;;;;;;5095768;28;19912;-73
2024/03/03 15:03:49;;;;;;;;;;;;;;;;;;5095182;28;19916;-73
2024/03/03 15:06:18;;;;;;;;;;;;;;;;;;5095535;28;19908;-73
2024/03/03 15:08:44;;;;;;;;;;;;;;;;;;5095380;28;19938;-73
2024/03/03 15:11:10;;;;;;;;;;;;;;;;;;5093990;28;19916;-72
2024/03/03 15:13:36;;;;;;;;;;;;;;;;;;5095372;28;20366;-72
2024/03/03 15:16:03;;;;;;;;;;;;;;;;;;5077181;28;20291;-72
2024/03/03 15:18:29;;;;;;;;;;;;;;;;;;5094882;28;19908;-73
2024/03/03 15:20:55;;;;;;;;;;;;;;;;;;5095444;28;20284;-73
2024/03/03 15:23:21;;;;;;;;;;;;;;;;;;5095106;28;19915;-72
2024/03/03 15:25:47;;;;;;;;;;;;;;;;;;5094849;28;19908;-73
2024/03/03 15:28:55;;;;;;;;;;;;;;;;;;5071575;28;20385;-71
2024/03/03 15:31:21;;;;;;;;;;;;;;;;;;5069746;28;19912;-72
2024/03/03 15:33:47;;;;;;;;;;;;;;;;;;5070682;28;19915;-73
2024/03/03 15:36:13;;;;;;;;;;;;;;;;;;5071255;28;20396;-74
2024/03/03 15:38:39;;;;;;;;;;;;;;;;;;5070503;28;19908;-74
2024/03/03 15:41:05;;;;;;;;;;;;;;;;;;5070889;28;19909;-73
2024/03/03 15:44:44;;;;;;;;;;;;;;;;;;5091408;27;19920;-72
2024/03/03 15:47:10;;;;;;;;;;;;;;;;;;5090906;28;20436;-72
2024/03/03 15:51:46;;;;;;;;;;;;;;;;;;5111580;27;19916;-72
2024/03/03 15:54:12;;;;;;;;;;;;;;;;;;5111373;28;19912;-73
2024/03/03 15:56:38;;;;;;;;;;;;;;;;;;5111475;28;20316;-73
2024/03/03 15:59:04;;;;;;;;;;;;;;;;;;5111522;28;19908;-72
2024/03/03 16:01:48;;;;;;;;;;;;;;;;;;5070798;28;19923;-72
2024/03/03 16:04:14;;;;;;;;;;;;;;;;;;5071089;28;19917;-73
2024/03/03 16:06:40;;;;;;;;;;;;;;;;;;5070667;28;20258;-73
2024/03/03 16:11:02;;;;;;;;;;;;;;;;;;5091547;27;20285;-72
2024/03/03 16:13:29;;;;;;;;;;;;;;;;;;5091426;28;19918;-72
2024/03/03 16:16:34;;;;;;;;;;;;;;;;;;5092063;27;20379;-72
2024/03/03 16:19:00;;;;;;;;;;;;;;;;;;5089920;28;19955;-73
2024/03/03 16:21:26;;;;;;;;;;;;;;;;;;5090823;28;19939;-73
2024/03/03 16:23:52;;;;;;;;;;;;;;;;;;5091210;28;19970;-73
2024/03/03 16:26:18;;;;;;;;;;;;;;;;;;5089840;28;20029;-73
2024/03/03 16:28:44;;;;;;;;;;;;;;;;;;5090720;28;19916;-73
2024/03/03 16:31:10;;;;;;;;;;;;;;;;;;5091078;28;19912;-73
2024/03/03 16:33:36;;;;;;;;;;;;;;;;;;5091049;28;19939;-73
2024/03/03 16:36:04;;;;;;;;;;;;;;;;;;5090536;28;19917;-73
2024/03/03 16:39:45;;;;;;;;;;;;;;;;;;5091446;27;19918;-73
2024/03/03 16:42:11;;;;;;;;;;;;;;;;;;5090930;28;19934;-73
2024/03/03 16:44:39;;;;;;;;;;;;;;;;;;5091230;28;20420;-73
2024/03/03 16:47:05;;;;;;;;;;;;;;;;;;5091219;28;20368;-73
2024/03/03 16:49:31;;;;;;;;;;;;;;;;;;5089555;28;20335;-72
2024/03/03 16:51:57;;;;;;;;;;;;;;;;;;5090570;28;19909;-72
2024/03/03 16:56:15;;;;;;;;;;;;;;;;;;5091133;27;19916;-73
2024/03/03 16:58:43;;;;;;;;;;;;;;;;;;5090008;28;19999;-72
2024/03/03 17:01:09;;;;;;;;;;;;;;;;;;5091179;28;20277;-72
2024/03/03 17:03:36;;;;;;;;;;;;;;;;;;5090745;28;19912;-72
2024/03/03 17:06:02;;;;;;;;;;;;;;;;;;5091135;28;19912;-72
2024/03/03 17:08:28;;;;;;;;;;;;;;;;;;5091338;28;19916;-72
2024/03/03 17:10:54;;;;;;;;;;;;;;;;;;5090138;28;19909;-72
2024/03/03 17:13:30;;;;;;;;;;;;;;;;;;5112499;27;20349;-72
2024/03/03 17:15:56;;;;;;;;;;;;;;;;;;5111632;28;20011;-72
2024/03/03 17:18:22;;;;;;;;;;;;;;;;;;5111193;28;20368;-72
2024/03/03 17:20:48;;;;;;;;;;;;;;;;;;5110276;28;19908;-72
2024/03/03 17:23:16;;;;;;;;;;;;;;;;;;5110264;28;19908;-72
2024/03/03 17:25:42;;;;;;;;;;;;;;;;;;5111134;28;19908;-71
2024/03/03 17:28:08;;;;;;;;;;;;;;;;;;5111394;28;19909;-72
2024/03/03 17:30:34;;;;;;;;;;;;;;;;;;5111380;28;19907;-72
2024/03/03 17:33:00;;;;;;;;;;;;;;;;;;5109645;28;19923;-73
2024/03/03 17:35:26;;;;;;;;;;;;;;;;;;5109942;28;19908;-73
2024/03/03 17:37:52;;;;;;;;;;;;;;;;;;5109828;28;19915;-73
2024/03/03 17:40:18;;;;;;;;;;;;;;;;;;5109906;28;19912;-72
2024/03/03 17:42:43;;;;;;;;;;;;;;;;;;5111246;28;19942;-72
2024/03/03 17:45:10;;;;;;;;;;;;;;;;;;5111028;28;19908;-72